createdAt,value
2022-10-01T00:02:10.030Z,96.70
2022-10-01T00:04:39.612Z,96.56
2022-10-01T00:07:15.077Z,96.64
2022-10-01T00:09:43.549Z,97.15
2022-10-01T00:12:14.110Z,96.88
2022-10-01T00:14:42.429Z,96.73
2022-10-01T00:17:10.717Z,97.01
2022-10-01T00:19:38.948Z,97.24
2022-10-01T00:22:08.563Z,97.67
2022-10-01T00:24:37.712Z,97.69
2022-10-01T00:27:05.959Z,97.94
2022-10-01T00:29:34.483Z,97.88
2022-10-01T00:32:02.906Z,98.27
2022-10-01T00:34:31.248Z,98.38
2022-10-01T00:36:59.499Z,98.49
2022-10-01T00:39:29.160Z,98.77
2022-10-01T00:41:57.405Z,98.78
2022-10-01T00:44:34.750Z,99.05
2022-10-01T00:47:12.096Z,99.49
2022-10-01T00:49:42.961Z,99.35
2022-10-01T00:52:16.624Z,99.69
2022-10-01T00:54:50.723Z,100.00
2022-10-01T00:57:23.105Z,100.00
2022-10-01T00:59:53.309Z,100.00
2022-10-01T01:02:21.905Z,100.00
2022-10-01T01:04:50.251Z,100.00
2022-10-01T01:07:22.240Z,100.00
2022-10-01T01:09:54.687Z,100.00
2022-10-01T01:12:47.464Z,100.00
2022-10-01T01:15:21.049Z,100.00
2022-10-01T01:17:57.779Z,100.00
2022-10-01T01:20:55.133Z,100.00
2022-10-01T01:23:56.337Z,100.00
2022-10-01T01:26:34.606Z,100.00
2022-10-01T01:29:09.461Z,100.00
2022-10-01T01:31:41.884Z,99.95
2022-10-01T01:34:17.414Z,100.00
2022-10-01T01:36:54.246Z,100.00
2022-10-01T01:39:25.142Z,100.00
2022-10-01T01:42:01.071Z,100.00
2022-10-01T01:44:35.501Z,100.00
2022-10-01T01:47:05.289Z,100.00
2022-10-01T01:49:34.055Z,100.00
2022-10-01T01:52:09.170Z,100.00
2022-10-01T01:54:38.623Z,100.00
2022-10-01T01:57:08.786Z,100.00
2022-10-01T01:59:38.362Z,100.00
2022-10-01T02:02:10.229Z,100.00
2022-10-01T02:04:43.694Z,100.00
2022-10-01T02:07:50.306Z,100.00
2022-10-01T02:10:34.614Z,100.00
2022-10-01T02:13:24.175Z,100.00
2022-10-01T02:16:04.283Z,100.00
2022-10-01T02:18:43.255Z,100.00
2022-10-01T02:21:18.357Z,100.00
2022-10-01T02:23:58.038Z,100.00
2022-10-01T02:26:29.779Z,100.00
2022-10-01T02:29:04.394Z,100.00
2022-10-01T02:31:35.822Z,100.00
2022-10-01T02:34:08.617Z,100.00
2022-10-01T02:36:42.486Z,100.00
2022-10-01T02:39:12.761Z,100.00
2022-10-01T02:41:43.027Z,100.00
2022-10-01T02:44:16.605Z,100.00
2022-10-01T02:46:54.312Z,100.00
2022-10-01T02:49:23.559Z,100.00
2022-10-01T02:52:02.211Z,100.00
2022-10-01T02:54:38.220Z,99.84
2022-10-01T02:57:24.042Z,99.60
2022-10-01T02:59:53.227Z,99.78
2022-10-01T03:02:23.388Z,99.90
2022-10-01T03:04:51.657Z,99.80
2022-10-01T03:07:19.881Z,100.00
2022-10-01T03:09:49.320Z,99.71
2022-10-01T03:12:18.187Z,99.45
2022-10-01T03:14:47.543Z,99.77
2022-10-01T03:17:16.737Z,99.80
2022-10-01T03:19:46.544Z,99.68
2022-10-01T03:22:19.132Z,99.23
2022-10-01T03:24:47.431Z,99.38
2022-10-01T03:27:15.701Z,99.35
2022-10-01T03:29:44.080Z,99.38
2022-10-01T03:32:12.710Z,99.09
2022-10-01T03:34:41.021Z,98.94
2022-10-01T03:37:11.242Z,98.83
2022-10-01T03:39:39.885Z,98.93
2022-10-01T03:42:08.141Z,98.78
2022-10-01T03:44:36.372Z,99.08
2022-10-01T03:47:04.736Z,99.23
2022-10-01T03:49:33.820Z,98.80
2022-10-01T03:52:02.843Z,99.10
2022-10-01T03:54:32.512Z,98.99
2022-10-01T03:57:00.850Z,99.01
2022-10-01T03:59:29.604Z,98.72
2022-10-01T04:01:57.953Z,98.48
2022-10-01T04:04:28.828Z,98.25
2022-10-01T04:06:57.150Z,97.79
2022-10-01T04:09:25.473Z,97.85
2022-10-01T04:11:55.344Z,97.87
2022-10-01T04:14:23.626Z,97.80
2022-10-01T04:16:52.429Z,97.68
2022-10-01T04:19:21.214Z,97.64
2022-10-01T04:21:49.465Z,97.37
2022-10-01T04:24:17.769Z,97.14
2022-10-01T04:26:45.989Z,97.19
2022-10-01T04:29:15.821Z,97.27
2022-10-01T04:31:44.133Z,96.80
2022-10-01T04:34:12.471Z,96.81
2022-10-01T04:36:41.765Z,96.91
2022-10-01T04:39:10.077Z,96.71
2022-10-01T04:41:39.024Z,96.94
2022-10-01T04:44:10.405Z,97.11
2022-10-01T04:46:40.171Z,96.83
2022-10-01T04:49:08.621Z,96.69
2022-10-01T04:51:37.143Z,96.36
2022-10-01T04:54:05.653Z,96.31
2022-10-01T04:56:35.715Z,96.25
2022-10-01T04:59:03.946Z,96.22
2022-10-01T05:01:32.584Z,96.08
2022-10-01T05:04:02.828Z,96.01
2022-10-01T05:06:31.323Z,95.74
2022-10-01T05:08:59.647Z,95.24
2022-10-01T05:11:28.154Z,94.80
2022-10-01T05:13:56.575Z,94.11
2022-10-01T05:16:25.048Z,94.04
2022-10-01T05:18:54.772Z,93.84
2022-10-01T05:21:24.438Z,93.54
2022-10-01T05:23:52.757Z,93.34
2022-10-01T05:26:21.047Z,93.14
2022-10-01T05:28:49.501Z,92.66
2022-10-01T05:31:18.742Z,92.52
2022-10-01T05:33:47.178Z,92.11
2022-10-01T05:36:15.454Z,91.96
2022-10-01T05:38:46.103Z,91.45
2022-10-01T05:41:14.497Z,91.14
2022-10-01T05:43:43.791Z,90.99
2022-10-01T05:46:12.250Z,90.68
2022-10-01T05:48:40.529Z,90.25
2022-10-01T05:51:08.923Z,90.01
2022-10-01T05:53:38.448Z,89.75
2022-10-01T05:56:08.774Z,89.51
2022-10-01T05:58:37.420Z,89.36
2022-10-01T06:01:05.931Z,89.26
2022-10-01T06:03:34.733Z,89.41
2022-10-01T06:06:05.363Z,89.51
2022-10-01T06:08:35.253Z,89.83
2022-10-01T06:11:04.965Z,90.18
2022-10-01T06:13:37.213Z,90.08
2022-10-01T06:16:05.866Z,89.94
2022-10-01T06:18:34.142Z,89.99
2022-10-01T06:21:02.415Z,89.81
2022-10-01T06:23:30.729Z,89.92
2022-10-01T06:26:01.902Z,90.04
2022-10-01T06:28:30.255Z,89.38
2022-10-01T06:31:02.814Z,89.15
2022-10-01T06:33:31.236Z,88.73
2022-10-01T06:35:59.523Z,88.22
2022-10-01T06:38:27.791Z,87.85
2022-10-01T06:40:58.700Z,87.43
2022-10-01T06:43:29.389Z,87.19
2022-10-01T06:46:01.677Z,87.22
2022-10-01T06:48:31.324Z,87.41
2022-10-01T06:51:00.291Z,87.59
2022-10-01T06:53:29.740Z,87.56
2022-10-01T06:55:58.972Z,87.50
2022-10-01T06:58:28.120Z,87.85
2022-10-01T07:01:02.077Z,87.98
2022-10-01T07:03:32.049Z,88.44
2022-10-01T07:06:04.721Z,89.01
2022-10-01T07:08:34.026Z,88.61
2022-10-01T07:11:03.634Z,88.16
2022-10-01T07:13:33.092Z,86.93
2022-10-01T07:16:04.851Z,85.31
2022-10-01T07:18:33.376Z,84.11
2022-10-01T07:21:01.890Z,83.12
2022-10-01T07:23:30.429Z,83.29
2022-10-01T07:25:58.975Z,83.97
2022-10-01T07:28:28.188Z,84.25
2022-10-01T07:31:05.072Z,84.47
2022-10-01T07:33:33.730Z,84.68
2022-10-01T07:36:03.220Z,84.93
2022-10-01T07:38:33.357Z,85.92
2022-10-01T07:41:02.935Z,86.07
2022-10-01T07:43:32.042Z,85.85
2022-10-01T07:46:02.911Z,85.28
2022-10-01T07:48:31.542Z,84.74
2022-10-01T07:51:02.150Z,84.25
2022-10-01T07:53:30.258Z,83.45
2022-10-01T07:56:02.211Z,82.14
2022-10-01T07:58:31.234Z,81.04
2022-10-01T08:01:00.895Z,80.93
2022-10-01T08:03:30.606Z,79.31
2022-10-01T08:05:59.322Z,78.50
2022-10-01T08:08:27.581Z,78.40
2022-10-01T08:10:55.879Z,78.49
2022-10-01T08:13:25.486Z,79.46
2022-10-01T08:15:54.710Z,79.65
2022-10-01T08:18:24.406Z,78.84
2022-10-01T08:20:54.976Z,79.37
2022-10-01T08:23:23.307Z,78.53
2022-10-01T08:25:51.571Z,79.20
2022-10-01T08:28:19.922Z,79.96
2022-10-01T08:30:48.210Z,80.23
2022-10-01T08:33:16.607Z,80.33
2022-10-01T08:35:45.203Z,80.39
2022-10-01T08:38:15.517Z,80.65
2022-10-01T08:40:47.465Z,80.97
2022-10-01T08:43:34.023Z,79.24
2022-10-01T08:46:06.678Z,79.39
2022-10-01T08:48:57.068Z,78.74
2022-10-01T08:51:30.451Z,78.23
2022-10-01T08:54:10.818Z,78.20
2022-10-01T08:56:45.243Z,77.69
2022-10-01T08:59:33.690Z,77.36
2022-10-01T09:02:02.035Z,77.16
2022-10-01T09:04:30.978Z,76.80
2022-10-01T09:07:11.687Z,76.88
2022-10-01T09:09:46.791Z,76.34
2022-10-01T09:12:28.585Z,77.42
2022-10-01T09:15:18.047Z,74.20
2022-10-01T09:18:03.064Z,71.68
2022-10-01T09:20:37.517Z,72.38
2022-10-01T09:23:20.143Z,73.32
2022-10-01T09:25:51.521Z,74.32
2022-10-01T09:28:23.764Z,75.26
2022-10-01T09:30:57.998Z,74.47
2022-10-01T09:33:32.766Z,74.70
2022-10-01T09:36:13.562Z,73.17
2022-10-01T09:38:44.206Z,71.50
2022-10-01T09:41:14.738Z,71.76
2022-10-01T09:43:45.018Z,71.65
2022-10-01T09:46:17.601Z,71.01
2022-10-01T09:48:57.705Z,70.96
2022-10-01T09:51:38.059Z,70.65
2022-10-01T09:54:16.907Z,69.94
2022-10-01T09:56:54.129Z,68.98
2022-10-01T09:59:29.683Z,69.63
2022-10-01T10:02:00.677Z,69.82
2022-10-01T10:04:29.264Z,69.63
2022-10-01T10:07:03.102Z,68.78
2022-10-01T10:09:34.866Z,68.84
2022-10-01T10:12:08.402Z,68.56
2022-10-01T10:14:40.803Z,68.51
2022-10-01T10:17:16.195Z,67.59
2022-10-01T10:19:52.318Z,66.94
2022-10-01T10:22:24.998Z,65.86
2022-10-01T10:24:54.456Z,65.65
2022-10-01T10:27:28.155Z,67.46
2022-10-01T10:30:06.261Z,68.64
2022-10-01T10:32:35.133Z,69.50
2022-10-01T10:35:10.046Z,69.82
2022-10-01T10:37:46.395Z,70.12
2022-10-01T10:40:20.422Z,69.10
2022-10-01T10:42:51.727Z,67.73
2022-10-01T10:45:25.526Z,67.85
2022-10-01T10:47:55.197Z,65.77
2022-10-01T10:50:32.959Z,67.88
2022-10-01T10:53:01.350Z,66.95
2022-10-01T10:55:32.051Z,66.33
2022-10-01T10:58:12.133Z,67.90
2022-10-01T11:00:48.455Z,67.43
2022-10-01T11:03:21.577Z,68.53
2022-10-01T11:05:51.579Z,67.82
2022-10-01T11:08:25.002Z,68.02
2022-10-01T11:11:05.123Z,66.41
2022-10-01T11:13:59.727Z,66.80
2022-10-01T11:16:46.187Z,66.62
2022-10-01T11:19:40.742Z,67.70
2022-10-01T11:22:29.182Z,68.53
2022-10-01T11:25:20.276Z,68.86
2022-10-01T11:27:57.703Z,68.34
2022-10-01T11:30:34.443Z,67.84
2022-10-01T11:33:12.152Z,66.23
2022-10-01T11:36:03.253Z,66.14
2022-10-01T11:38:51.468Z,66.12
2022-10-01T11:41:30.333Z,66.16
2022-10-01T11:44:05.127Z,66.44
2022-10-01T11:46:53.626Z,65.51
2022-10-01T11:49:50.190Z,64.70
2022-10-01T11:52:39.194Z,64.83
2022-10-01T11:55:41.044Z,64.63
2022-10-01T11:58:36.054Z,64.17
2022-10-01T12:01:12.137Z,64.88
2022-10-01T12:04:02.377Z,63.04
2022-10-01T12:06:34.852Z,63.63
2022-10-01T12:09:15.096Z,63.14
2022-10-01T12:11:52.706Z,63.50
2022-10-01T12:14:31.631Z,63.32
2022-10-01T12:17:10.554Z,63.50
2022-10-01T12:19:46.530Z,64.33
2022-10-01T12:22:24.356Z,64.86
2022-10-01T12:24:53.949Z,64.53
2022-10-01T12:27:53.387Z,64.44
2022-10-01T12:30:24.774Z,63.97
2022-10-01T12:33:16.659Z,64.97
2022-10-01T12:35:58.842Z,66.45
2022-10-01T12:38:45.700Z,66.22
2022-10-01T12:41:32.281Z,64.05
2022-10-01T12:44:20.752Z,64.18
2022-10-01T12:47:03.558Z,64.33
2022-10-01T12:49:39.141Z,65.19
2022-10-01T12:52:18.400Z,63.72
2022-10-01T12:55:00.965Z,61.98
2022-10-01T12:57:45.380Z,61.84
2022-10-01T13:00:19.688Z,62.69
2022-10-01T13:03:36.863Z,64.03
2022-10-01T13:06:23.364Z,64.74
2022-10-01T13:09:12.818Z,64.77
2022-10-01T13:12:01.238Z,62.33
2022-10-01T13:14:31.338Z,62.56
2022-10-01T13:17:06.269Z,63.20
2022-10-01T13:19:46.907Z,62.44
2022-10-01T13:22:19.601Z,61.35
2022-10-01T13:24:54.734Z,61.49
2022-10-01T13:27:29.856Z,59.98
2022-10-01T13:30:02.976Z,59.38
2022-10-01T13:32:34.439Z,59.40
2022-10-01T13:35:24.229Z,59.37
2022-10-01T13:37:52.766Z,59.28
2022-10-01T13:40:28.383Z,58.09
2022-10-01T13:43:00.605Z,58.67
2022-10-01T13:45:34.251Z,58.95
2022-10-01T13:48:17.750Z,59.75
2022-10-01T13:51:05.149Z,60.46
2022-10-01T13:53:38.200Z,60.32
2022-10-01T13:56:09.080Z,61.32
2022-10-01T13:58:40.849Z,62.67
2022-10-01T14:01:30.067Z,63.57
2022-10-01T14:04:06.725Z,64.03
2022-10-01T14:06:44.721Z,64.38
2022-10-01T14:09:21.459Z,64.67
2022-10-01T14:12:13.243Z,65.00
2022-10-01T14:15:02.175Z,64.63
2022-10-01T14:17:33.044Z,64.75
2022-10-01T14:20:02.748Z,65.38
2022-10-01T14:22:49.891Z,65.02
2022-10-01T14:25:36.456Z,64.88
2022-10-01T14:28:47.155Z,63.69
2022-10-01T14:31:27.399Z,63.09
2022-10-01T14:34:20.548Z,62.04
2022-10-01T14:36:50.994Z,61.85
2022-10-01T14:39:21.628Z,58.91
2022-10-01T14:41:52.920Z,59.97
2022-10-01T14:44:27.116Z,60.86
2022-10-01T14:46:58.079Z,60.76
2022-10-01T14:49:29.593Z,60.78
2022-10-01T14:52:03.110Z,62.11
2022-10-01T14:54:40.338Z,62.24
2022-10-01T14:57:12.154Z,62.27
2022-10-01T14:59:42.510Z,62.39
2022-10-01T15:02:21.245Z,61.93
2022-10-01T15:04:51.472Z,62.34
2022-10-01T15:07:20.278Z,62.19
2022-10-01T15:09:49.926Z,62.29
2022-10-01T15:12:21.887Z,61.24
2022-10-01T15:14:55.845Z,61.17
2022-10-01T15:17:28.003Z,60.77
2022-10-01T15:19:58.676Z,60.18
2022-10-01T15:22:29.411Z,59.96
2022-10-01T15:25:01.276Z,59.71
2022-10-01T15:27:30.300Z,60.18
2022-10-01T15:30:00.748Z,60.19
2022-10-01T15:32:29.752Z,60.01
2022-10-01T15:35:01.989Z,60.58
2022-10-01T15:37:35.089Z,60.44
2022-10-01T15:40:06.782Z,60.68
2022-10-01T15:42:37.446Z,59.89
2022-10-01T15:45:26.839Z,59.47
2022-10-01T15:47:58.013Z,60.06
2022-10-01T15:50:29.565Z,59.98
2022-10-01T15:53:06.426Z,60.52
2022-10-01T15:55:37.365Z,60.89
2022-10-01T15:58:15.725Z,61.21
2022-10-01T16:01:00.525Z,61.15
2022-10-01T16:03:33.580Z,61.16
2022-10-01T16:06:04.445Z,61.35
2022-10-01T16:08:40.498Z,61.79
2022-10-01T16:11:23.570Z,62.12
2022-10-01T16:13:54.814Z,62.16
2022-10-01T16:16:28.548Z,62.06
2022-10-01T16:19:01.130Z,61.61
2022-10-01T16:21:29.605Z,61.65
2022-10-01T16:23:57.877Z,61.40
2022-10-01T16:26:40.334Z,61.01
2022-10-01T16:29:23.960Z,61.32
2022-10-01T16:31:54.071Z,61.26
2022-10-01T16:34:22.718Z,61.10
2022-10-01T16:36:51.530Z,61.10
2022-10-01T16:39:19.795Z,61.32
2022-10-01T16:42:06.256Z,61.58
2022-10-01T16:44:39.988Z,62.13
2022-10-01T16:47:12.168Z,62.53
2022-10-01T16:49:41.329Z,62.79
2022-10-01T16:52:14.047Z,62.90
2022-10-01T16:54:44.362Z,62.88
2022-10-01T16:57:12.742Z,62.67
2022-10-01T16:59:41.107Z,62.77
2022-10-01T17:02:14.579Z,62.75
2022-10-01T17:04:42.977Z,62.52
2022-10-01T17:07:11.279Z,62.72
2022-10-01T17:09:39.664Z,62.64
2022-10-01T17:12:07.928Z,62.63
2022-10-01T17:14:36.709Z,62.77
2022-10-01T17:17:05.216Z,62.70
2022-10-01T17:19:34.814Z,62.81
2022-10-01T17:22:03.194Z,62.60
2022-10-01T17:24:32.557Z,62.22
2022-10-01T17:27:00.780Z,61.64
2022-10-01T17:29:30.872Z,61.35
2022-10-01T17:31:59.206Z,60.64
2022-10-01T17:34:27.539Z,61.15
2022-10-01T17:36:59.795Z,62.47
2022-10-01T17:39:28.161Z,63.47
2022-10-01T17:41:56.375Z,63.75
2022-10-01T17:44:24.690Z,63.83
2022-10-01T17:46:53.052Z,64.08
2022-10-01T17:49:21.569Z,64.01
2022-10-01T17:51:50.653Z,63.77
2022-10-01T17:54:21.139Z,63.46
2022-10-01T17:56:49.766Z,63.39
2022-10-01T17:59:19.066Z,63.12
2022-10-01T18:01:47.419Z,63.08
2022-10-01T18:04:15.926Z,63.20
2022-10-01T18:06:44.245Z,63.41
2022-10-01T18:09:12.790Z,63.47
2022-10-01T18:11:42.660Z,63.94
2022-10-01T18:14:11.099Z,64.32
2022-10-01T18:16:40.474Z,64.62
2022-10-01T18:21:59.592Z,65.81
2022-10-01T18:24:28.099Z,66.13
2022-10-01T18:26:58.063Z,66.10
2022-10-01T18:29:29.144Z,66.07
2022-10-01T18:32:07.641Z,66.23
2022-10-01T18:34:41.891Z,66.16
2022-10-01T18:37:25.317Z,66.29
2022-10-01T18:40:00.154Z,66.74
2022-10-01T18:42:43.939Z,67.15
2022-10-01T18:45:18.422Z,67.40
2022-10-01T18:48:04.484Z,67.43
2022-10-01T18:50:41.846Z,67.47
2022-10-01T18:53:31.163Z,67.45
2022-10-01T18:56:19.969Z,67.37
2022-10-01T18:59:24.671Z,67.36
2022-10-01T19:02:21.664Z,67.84
2022-10-01T19:05:29.999Z,68.09
2022-10-01T19:08:07.755Z,68.39
2022-10-01T19:10:40.813Z,68.80
2022-10-01T19:13:20.617Z,69.08
2022-10-01T19:16:03.421Z,69.30
2022-10-01T19:18:51.782Z,69.34
2022-10-01T19:21:29.765Z,69.77
2022-10-01T19:24:23.432Z,69.97
2022-10-01T19:27:00.646Z,70.37
2022-10-01T19:29:48.424Z,70.36
2022-10-01T19:32:23.015Z,70.38
2022-10-01T19:34:59.151Z,70.45
2022-10-01T19:37:34.973Z,70.60
2022-10-01T19:40:14.337Z,70.72
2022-10-01T19:42:48.775Z,70.84
2022-10-01T19:45:24.581Z,70.95
2022-10-01T19:48:09.895Z,70.96
2022-10-01T19:50:42.691Z,71.32
2022-10-01T19:53:23.089Z,71.53
2022-10-01T19:55:53.338Z,71.60
2022-10-01T19:58:23.819Z,71.81
2022-10-01T20:00:57.739Z,71.84
2022-10-01T20:03:37.529Z,71.85
2022-10-01T20:06:10.961Z,72.08
2022-10-01T20:08:48.465Z,72.16
2022-10-01T20:11:22.918Z,72.27
2022-10-01T20:14:36.820Z,72.42
2022-10-01T20:17:16.623Z,72.64
2022-10-01T20:19:56.652Z,72.77
2022-10-01T20:22:35.179Z,72.86
2022-10-01T20:25:11.724Z,72.97
2022-10-01T20:27:50.058Z,72.99
2022-10-01T20:30:21.007Z,72.97
2022-10-01T20:32:57.952Z,72.96
2022-10-01T20:35:38.129Z,72.80
2022-10-01T20:38:12.705Z,73.10
2022-10-01T20:40:49.508Z,73.25
2022-10-01T20:43:23.436Z,73.29
2022-10-01T20:45:53.094Z,73.54
2022-10-01T20:48:26.962Z,73.72
2022-10-01T20:51:06.614Z,73.77
2022-10-01T20:53:40.446Z,73.58
2022-10-01T20:56:16.526Z,73.83
2022-10-01T20:58:50.986Z,73.75
2022-10-01T21:01:23.877Z,73.69
2022-10-01T21:03:58.633Z,73.67
2022-10-01T21:06:36.593Z,73.61
2022-10-01T21:09:16.935Z,73.69
2022-10-01T21:11:50.630Z,73.95
2022-10-01T21:14:25.156Z,73.93
2022-10-01T21:17:14.579Z,74.04
2022-10-01T21:20:06.631Z,74.06
2022-10-01T21:22:53.993Z,74.18
2022-10-01T21:25:38.303Z,74.93
2022-10-01T21:28:19.499Z,75.29
2022-10-01T21:31:03.077Z,75.84
2022-10-01T21:33:40.195Z,76.40
2022-10-01T21:36:19.416Z,75.63
2022-10-01T21:38:56.353Z,75.80
2022-10-01T21:41:39.770Z,76.37
2022-10-01T21:44:56.270Z,77.44
2022-10-01T21:47:38.392Z,77.64
2022-10-01T21:50:21.726Z,77.14
2022-10-01T21:53:22.525Z,76.74
2022-10-01T21:56:11.551Z,75.48
2022-10-01T21:58:59.442Z,74.08
2022-10-01T22:01:48.911Z,73.37
2022-10-01T22:04:23.411Z,72.72
2022-10-01T22:06:57.732Z,72.15
2022-10-01T22:09:37.546Z,72.00
2022-10-01T22:12:08.399Z,72.10
2022-10-01T22:14:36.926Z,72.27
2022-10-01T22:17:16.048Z,72.28
2022-10-01T22:19:50.130Z,72.86
2022-10-01T22:22:25.600Z,73.63
2022-10-01T22:24:55.843Z,74.88
2022-10-01T22:27:33.335Z,75.57
2022-10-01T22:30:08.056Z,76.25
2022-10-01T22:32:43.487Z,77.04
2022-10-01T22:35:18.616Z,77.43
2022-10-01T22:37:53.823Z,77.52
2022-10-01T22:40:29.449Z,77.46
2022-10-01T22:43:07.118Z,77.41
2022-10-01T22:45:51.324Z,77.55
2022-10-01T22:48:46.107Z,77.60
2022-10-01T22:51:33.985Z,77.46
2022-10-01T22:54:22.240Z,77.31
2022-10-01T22:57:00.492Z,77.15
2022-10-01T22:59:42.170Z,76.96
2022-10-01T23:02:19.156Z,77.09
2022-10-01T23:05:03.154Z,77.10
2022-10-01T23:07:43.123Z,77.52
2022-10-01T23:10:16.785Z,77.70
2022-10-01T23:13:01.502Z,77.92
2022-10-01T23:15:39.038Z,78.33
2022-10-01T23:18:19.169Z,78.54
2022-10-01T23:21:09.336Z,78.98
2022-10-01T23:23:37.687Z,79.19
2022-10-01T23:26:37.691Z,79.20
2022-10-01T23:29:29.579Z,79.57
2022-10-01T23:32:12.176Z,79.91
2022-10-01T23:34:52.541Z,79.91
2022-10-01T23:37:48.033Z,79.81
2022-10-01T23:40:20.594Z,79.85
2022-10-01T23:42:59.547Z,79.71
2022-10-01T23:45:35.499Z,79.60
2022-10-01T23:48:11.760Z,79.50
2022-10-01T23:50:46.400Z,79.43
2022-10-01T23:53:19.066Z,79.22
2022-10-01T23:56:13.891Z,79.21
2022-10-01T23:58:49.668Z,79.23
